Terminal Aerodrome Forecast
Issued by NWS

Home | Current Version | Previous Version | Text Only | Print | Product List | Glossary On
Versions: 1 2 3 4 5 6 7 8 9 10 11 12 13 14 15 16 17 18 19 20
571
FTUS44 KBMX 252340
TAFMGM
TAF
KMGM 252340Z 2600/2624 VRB03KT P6SM VCSH OVC060
     FM260700 15003KT 4SM BR OVC015
     FM260900 18007KT 3SM -RA BR OVC007
     FM261300 32008KT 5SM -RA OVC015
     FM261900 34007KT P6SM SCT015 OVC050=

USA.gov is the U.S. government's official web portal to all federal, state and local government web resources and services.